Rochelle, IL

11:49 AM CST on November 22, 2019 (GMT -0600)
Rochelle

Weather History for KRPJ - September, 2019

Change the Weather History Date:

Tuesday, September 10, 2019

  Actual Average (WUND) Record (WUND)
Temperature  
Mean Temperature 76 °F -  
Max Temperature 85 °F - - (-1)
Min Temperature 68 °F - - (-1)
Cooling Degree Days 11    
Growing Degree Days 26 (Base 50)    
Moisture  
Dew Point 72 °F    
Average Humidity 89    
Maximum Humidity 100    
Minimum Humidity 69    
Precipitation  
Precipitation 0.00 in - - ()
Sea Level Pressure  
Sea Level Pressure 30.06 in    
Wind  
Wind Speed 7 mph ()    
Max Wind Speed 15 mph    
Max Gust Speed 21 mph    
Visibility 9.3 miles    
Events      
Averages and records for this station are not official NWS values.
T = Trace of Precipitation, MM = Missing Value Source: Averaged Metar Reports

Daily Weather History Graph

Daily Weather History Graph

Search for Another Location

Airport or City:

Astronomy

Sep. 10, 2019 Rise Set
Actual Time 6:31 AM CDT 7:14 PM CDT
Civil Twilight 6:02 AM CDT 7:42 PM CDT
Nautical Twilight 5:29 AM CDT 8:16 PM CDT
Astronomical Twilight 4:54 AM CDT 8:50 PM CDT
Moon 5:54 PM CDT (9/10) 2:52 AM CDT (9/10)
Length of Visible Light 13h 40m
Length of Day
12h 43m
Waxing Gibbous, 89% of the Moon is Illuminated
Sep 10
Waxing Gibbous
Sep 13
Full
Sep 21
Last Quarter
Sep 28
New
Oct 5
First Quarter

Hourly Weather History & Observations

Time (CDT) Temp. Heat Index Dew Point Humidity Pressure Visibility Wind Dir Wind Speed Gust Speed Precip Events Conditions
12:15 AM 69.8 °F - 68.9 °F 97% 30.04 in 10.0 mi SSE 8.1 mph - N/A   Clear
12:35 AM 69.4 °F - 68.9 °F 98% 30.04 in 10.0 mi SSE 8.1 mph - N/A   Clear
12:55 AM 68.9 °F - 68.7 °F 99% 30.04 in 10.0 mi SSE 6.9 mph - N/A   Clear
1:15 AM 68.5 °F - 68.4 °F 99% 30.04 in 7.0 mi SSE 5.8 mph - N/A   Clear
1:35 AM 69.8 °F - 69.3 °F 98% 30.04 in 10.0 mi South 8.1 mph - N/A   Clear
1:55 AM 70.7 °F - 69.8 °F 97% 30.04 in 10.0 mi South 8.1 mph - N/A   Clear
2:15 AM 70.7 °F - 69.8 °F 97% 30.04 in 10.0 mi South 6.9 mph - N/A   Clear
2:35 AM 70.9 °F - 69.8 °F 96% 30.03 in 10.0 mi South 8.1 mph - N/A   Clear
2:55 AM 71.1 °F - 69.8 °F 96% 30.04 in 10.0 mi South 8.1 mph - N/A   Clear
3:15 AM 71.6 °F - 69.8 °F 94% 30.04 in 10.0 mi South 8.1 mph - N/A   Clear
3:35 AM 71.6 °F - 69.8 °F 94% 30.04 in 10.0 mi South 9.2 mph - N/A   Scattered Clouds
3:55 AM 71.8 °F - 69.8 °F 93% 30.04 in 10.0 mi South 8.1 mph - N/A   Scattered Clouds
4:15 AM 71.6 °F - 69.8 °F 94% 30.03 in 10.0 mi South 10.4 mph - N/A   Mostly Cloudy
4:35 AM 71.8 °F - 69.8 °F 93% 30.03 in 10.0 mi South 10.4 mph - N/A   Mostly Cloudy
4:55 AM 71.6 °F - 69.8 °F 94% 30.02 in 10.0 mi South 10.4 mph - N/A   Mostly Cloudy
5:15 AM 71.4 °F - 69.6 °F 94% 30.02 in 10.0 mi South 10.4 mph - N/A   Scattered Clouds
5:35 AM 71.6 °F - 69.4 °F 93% 30.03 in 10.0 mi SSW 6.9 mph - N/A   Clear
5:55 AM 70.3 °F - 69.1 °F 96% 30.04 in 10.0 mi NNE 3.5 mph - N/A   Clear
6:15 AM 70.3 °F - 69.3 °F 96% 30.05 in 10.0 mi Calm Calm - N/A   Clear
6:35 AM 70.2 °F - 69.1 °F 96% 30.05 in 10.0 mi South 5.8 mph - N/A   Clear
6:55 AM 70.2 °F - 69.3 °F 97% 30.05 in 10.0 mi South 6.9 mph - N/A   Clear
7:35 AM 70.9 °F - 70.0 °F 97% 30.06 in 10.0 mi South 4.6 mph - N/A   Clear
7:55 AM 72.1 °F - 70.3 °F 94% 30.06 in 7.0 mi South 6.9 mph - N/A   Scattered Clouds
8:15 AM 73.0 °F - 70.7 °F 92% 30.05 in 10.0 mi South 6.9 mph - N/A   Clear
8:35 AM 74.1 °F - 71.2 °F 91% 30.06 in 10.0 mi South 8.1 mph - N/A   Clear
8:55 AM 76.1 °F - 72.3 °F 88% 30.05 in 10.0 mi SSW 9.2 mph - N/A   Clear
9:15 AM 78.1 °F - 72.9 °F 84% 30.06 in 10.0 mi SSW 11.5 mph 16.1 mph N/A   Clear
9:35 AM 78.8 °F - 73.4 °F 83% 30.06 in 10.0 mi SSW 11.5 mph - N/A   Clear
9:55 AM 79.2 °F - 73.4 °F 82% 30.07 in 10.0 mi SW 11.5 mph 17.3 mph N/A   Clear
10:15 AM 80.4 °F 85.0 °F 73.4 °F 79% 30.07 in 10.0 mi SW 15.0 mph 20.7 mph N/A   Clear
10:35 AM 80.8 °F 86.1 °F 74.5 °F 81% 30.07 in 10.0 mi WSW 12.7 mph 17.3 mph N/A   Clear
10:55 AM 81.0 °F 86.3 °F 74.1 °F 80% 30.07 in 10.0 mi SW 13.8 mph - N/A   Clear
11:15 AM 81.5 °F 87.2 °F 74.1 °F 78% 30.07 in 10.0 mi SW 13.8 mph - N/A   Clear
11:39 AM 82.4 °F 89.5 °F 75.2 °F 79% 30.06 in 10.0 mi SW 12.7 mph 17.3 mph N/A   Clear
11:55 AM 81.9 °F 87.7 °F 74.1 °F 77% 30.05 in 10.0 mi SSW 10.4 mph 17.3 mph N/A   Clear
12:15 PM 83.1 °F 90.4 °F 75.0 °F 76% 30.04 in 10.0 mi SSW 10.4 mph - N/A   Clear
12:35 PM 83.1 °F 89.5 °F 73.6 °F 73% 30.05 in 10.0 mi SW 11.5 mph 17.3 mph N/A   Clear
12:55 PM 84.4 °F 91.3 °F 73.6 °F 70% 30.05 in 10.0 mi WSW 15.0 mph 20.7 mph N/A   Clear
1:15 PM 84.6 °F 92.1 °F 74.3 °F 71% 30.05 in 10.0 mi WSW 12.7 mph 20.7 mph N/A   Scattered Clouds
1:35 PM 83.7 °F 89.4 °F 72.5 °F 69% 30.05 in 10.0 mi WSW 11.5 mph 19.6 mph N/A   Scattered Clouds
1:55 PM 84.2 °F 91.9 °F 74.7 °F 73% 30.04 in 10.0 mi SSW 11.5 mph 17.3 mph N/A   Clear
2:15 PM 84.2 °F 91.2 °F 73.8 °F 71% 30.06 in 10.0 mi WSW 12.7 mph 19.6 mph N/A   Mostly Cloudy
2:35 PM 83.3 °F 89.0 °F 72.5 °F 70% 30.05 in 10.0 mi West 13.8 mph 17.3 mph N/A   Scattered Clouds
3:15 PM 82.6 °F 88.1 °F 72.9 °F 72% 30.05 in 10.0 mi West 8.1 mph - N/A   Clear
3:35 PM 82.6 °F 88.1 °F 72.7 °F 72% 30.05 in 10.0 mi West 8.1 mph - N/A   Clear
3:55 PM 82.9 °F 89.1 °F 73.4 °F 73% 30.05 in 10.0 mi West 8.1 mph - N/A   Clear
4:15 PM 82.6 °F 88.3 °F 73.2 °F 73% 30.06 in 10.0 mi West 8.1 mph - N/A   Clear
4:35 PM 82.8 °F 89.2 °F 74.3 °F 75% 30.06 in 10.0 mi West 5.8 mph - N/A   Clear
4:55 PM 82.2 °F 88.0 °F 73.4 °F 75% 30.06 in 10.0 mi West 4.6 mph - N/A   Clear
5:15 PM 82.4 °F 88.4 °F 73.6 °F 75% 30.06 in 10.0 mi WNW 3.5 mph - N/A   Clear
5:35 PM 81.5 °F 87.6 °F 74.7 °F 80% 30.07 in 10.0 mi West 3.5 mph - N/A   Clear
5:55 PM 81.0 °F 86.5 °F 74.5 °F 81% 30.07 in 10.0 mi Calm Calm - N/A   Clear
6:15 PM 80.1 °F 84.8 °F 74.7 °F 83% 30.07 in 10.0 mi Calm Calm - N/A   Clear
6:35 PM 79.3 °F - 75.4 °F 88% 30.07 in 10.0 mi Calm Calm - N/A   Clear
6:55 PM 78.3 °F - 76.1 °F 93% 30.07 in 10.0 mi Calm Calm - N/A   Clear
7:15 PM 77.0 °F - 75.6 °F 95% 30.07 in 10.0 mi Calm Calm - N/A   Clear
7:38 PM 75.2 °F - 75.2 °F 100% 30.07 in 10.0 mi Calm Calm - N/A   Clear
7:55 PM 73.8 °F - 73.8 °F 100% 30.07 in 7.0 mi Calm Calm - N/A   Clear
8:15 PM 73.4 °F - 73.4 °F 100% 30.07 in 7.0 mi SSE 3.5 mph - N/A   Clear
8:35 PM 72.7 °F - 72.7 °F 100% 30.07 in 7.0 mi SSE 3.5 mph - N/A   Clear
8:55 PM 71.8 °F - 71.8 °F 100% 30.08 in 7.0 mi Calm Calm - N/A   Clear
9:15 PM 70.7 °F - 70.7 °F 100% 30.08 in 4.0 mi Calm Calm - N/A   Clear
9:35 PM 70.7 °F - 70.7 °F 100% 30.09 in 7.0 mi SSE 3.5 mph - N/A   Clear
9:55 PM 70.3 °F - 70.3 °F 100% 30.09 in 7.0 mi SSE 3.5 mph - N/A   Clear
10:15 PM 70.3 °F - 70.3 °F 100% 30.09 in 7.0 mi SSE 5.8 mph - N/A   Clear
10:35 PM 70.2 °F - 70.2 °F 100% 30.09 in 5.0 mi SE 4.6 mph - N/A   Clear
10:55 PM 70.3 °F - 70.3 °F 100% 30.09 in 7.0 mi SE 4.6 mph - N/A   Clear
11:15 PM 70.2 °F - 70.2 °F 100% 30.09 in 7.0 mi SSE 5.8 mph - N/A   Clear
11:35 PM 70.9 °F - 70.9 °F 100% 30.10 in 7.0 mi South 4.6 mph - N/A   Clear
11:55 PM 71.4 °F - 71.4 °F 100% 30.11 in 7.0 mi South 5.8 mph - N/A   Mostly Cloudy